Time;durP1;ratioP1;P1;durP2;ratioP2;P2;SDS_P1;SDS_P2;PMS_P1;PMS_P2;Temp;Humidity;BMP_temperature;BMP_pressure;BME280_temperature;BME280_humidity;BME280_pressure;Samples;Min_cycle;Max_cycle;Signal;HPM_P1;HPM_P2
2022/07/18 00:01:55;;;;;;;7.35;2.40;;;;;;;21.44;100.00;98776.72;5099961;28;20058;-93
2022/07/18 00:04:26;;;;;;;6.90;2.80;;;;;;;21.36;100.00;98778.91;5074479;28;20480;-94
2022/07/18 00:06:54;;;;;;;7.18;2.55;;;;;;;21.36;100.00;98784.22;5064117;28;20085;-94
2022/07/18 00:09:23;;;;;;;8.02;2.10;;;;;;;21.25;100.00;98783.00;5063511;28;20032;-93
2022/07/18 00:11:50;;;;;;;7.63;2.15;;;;;;;21.20;100.00;98766.47;5063884;28;20098;-94
2022/07/18 00:14:16;;;;;;;9.40;2.85;;;;;;;21.21;100.00;98762.00;5062385;28;20028;-93
2022/07/18 00:16:42;;;;;;;6.70;2.22;;;;;;;21.26;100.00;98770.59;5067357;28;20048;-95
2022/07/18 00:19:08;;;;;;;8.00;2.17;;;;;;;21.19;100.00;98763.91;5067430;28;20032;-94
2022/07/18 00:21:34;;;;;;;6.63;2.30;;;;;;;21.30;100.00;98761.53;5063202;28;20408;-94
2022/07/18 00:24:04;;;;;;;7.45;2.45;;;;;;;21.17;100.00;98757.81;5065911;28;20017;-94
2022/07/18 00:26:31;;;;;;;6.97;2.10;;;;;;;21.08;100.00;98757.34;5066615;28;20032;-93
2022/07/18 00:28:56;;;;;;;9.13;2.30;;;;;;;21.10;100.00;98746.69;5084284;28;20017;-96
2022/07/18 00:31:22;;;;;;;7.22;2.10;;;;;;;21.12;100.00;98755.41;5062886;28;20037;-94
2022/07/18 00:33:51;;;;;;;7.07;2.40;;;;;;;21.11;100.00;98759.84;5068287;28;20098;-94
2022/07/18 00:36:17;;;;;;;6.60;2.30;;;;;;;21.18;100.00;98768.31;5087512;28;20498;-94
2022/07/18 00:38:42;;;;;;;6.60;2.22;;;;;;;21.18;100.00;98762.19;5067123;28;20029;-93
2022/07/18 00:41:08;;;;;;;6.82;2.35;;;;;;;21.27;100.00;98762.53;5071489;28;20464;-94
2022/07/18 00:43:45;;;;;;;7.20;2.47;;;;;;;21.25;100.00;98771.53;5066948;28;20021;-95
2022/07/18 00:46:11;;;;;;;9.02;2.47;;;;;;;21.25;100.00;98766.22;5069355;28;20024;-95
2022/07/18 00:48:43;;;;;;;7.43;2.40;;;;;;;21.18;100.00;98773.63;5085765;28;20779;-93
2022/07/18 00:51:09;;;;;;;9.38;2.72;;;;;;;21.23;100.00;98762.81;5066190;28;20020;-93
2022/07/18 00:53:35;;;;;;;7.43;2.20;;;;;;;21.30;100.00;98765.03;5078069;28;20060;-94
2022/07/18 00:56:02;;;;;;;6.80;2.20;;;;;;;21.29;100.00;98759.81;5062388;28;20500;-95
2022/07/18 00:58:28;;;;;;;7.68;2.42;;;;;;;21.38;99.20;98756.69;5070748;28;20036;-94
2022/07/18 01:03:38;;;;;;;6.97;2.40;;;;;;;22.13;100.00;98754.38;5068654;28;20048;-93
2022/07/18 01:06:04;;;;;;;6.40;2.30;;;;;;;21.26;100.00;98750.22;5085696;28;20040;-91
2022/07/18 01:08:29;;;;;;;7.20;2.55;;;;;;;21.32;100.00;98759.63;5065472;28;20056;-93
2022/07/18 01:10:55;;;;;;;7.10;2.40;;;;;;;21.23;100.00;98752.19;5082912;28;20028;-93
2022/07/18 01:13:21;;;;;;;10.13;2.40;;;;;;;21.36;100.00;98760.34;5094294;28;20033;-94
2022/07/18 01:15:47;;;;;;;7.85;2.45;;;;;;;21.41;100.00;98753.00;5067550;28;20029;-94
2022/07/18 01:18:13;;;;;;;7.47;2.60;;;;;;;21.38;99.38;98751.38;5082317;28;20032;-93
2022/07/18 01:20:39;;;;;;;6.72;2.45;;;;;;;21.25;99.98;98750.31;5084843;28;20037;-92
2022/07/18 01:23:05;;;;;;;7.88;2.50;;;;;;;21.27;97.95;98745.78;5069454;28;20027;-93
2022/07/18 01:25:31;;;;;;;6.40;2.20;;;;;;;21.40;95.12;98751.28;5074353;28;20033;-94
2022/07/18 01:28:00;;;;;;;7.88;2.55;;;;;;;21.41;94.57;98745.91;5084816;28;20052;-93
2022/07/18 01:30:26;;;;;;;8.32;2.88;;;;;;;21.23;96.32;98733.63;5075091;28;20063;-95
2022/07/18 01:32:57;;;;;;;6.70;2.63;;;;;;;21.36;93.56;98747.09;5074120;28;20033;-92
2022/07/18 01:35:24;;;;;;;7.90;2.42;;;;;;;21.27;95.00;98743.97;5077500;28;20024;-93
2022/07/18 01:37:55;;;;;;;7.40;2.80;;;;;;;21.30;95.37;98751.78;5091735;28;20097;-92
2022/07/18 01:40:21;;;;;;;8.30;2.53;;;;;;;21.26;95.21;98736.94;5071590;28;20059;-93
2022/07/18 01:42:47;;;;;;;7.25;2.33;;;;;;;21.38;91.62;98739.88;5075207;28;20033;-92
2022/07/18 01:45:13;;;;;;;8.52;2.60;;;;;;;21.31;92.17;98731.44;5070620;28;20024;-92
2022/07/18 01:47:39;;;;;;;7.60;2.50;;;;;;;21.33;93.39;98734.84;5069197;28;20032;-92
2022/07/18 01:50:08;;;;;;;8.43;2.83;;;;;;;21.17;94.55;98725.97;5076944;28;20035;-93
2022/07/18 01:52:34;;;;;;;7.07;2.38;;;;;;;21.08;96.89;98722.88;5064407;28;20108;-93
2022/07/18 01:55:07;;;;;;;7.32;2.70;;;;;;;20.94;97.53;98722.75;5062529;28;20176;-94
2022/07/18 01:57:40;;;;;;;8.45;2.80;;;;;;;20.77;100.00;98713.88;5080136;28;20024;-92
2022/07/18 02:00:08;;;;;;;6.75;2.72;;;;;;;20.78;100.00;98714.75;5075341;28;20020;-96
2022/07/18 02:02:34;;;;;;;10.90;2.80;;;;;;;20.79;100.00;98709.38;5083811;28;20878;-93
2022/07/18 02:05:00;;;;;;;7.57;2.88;;;;;;;20.67;100.00;98706.44;5081979;28;20083;-93
2022/07/18 02:07:37;;;;;;;8.60;3.10;;;;;;;20.73;100.00;98716.78;5069906;28;20036;-93
2022/07/18 02:10:18;;;;;;;8.10;2.90;;;;;;;20.67;100.00;98712.63;5085673;28;20028;-91
2022/07/18 02:12:45;;;;;;;8.00;3.10;;;;;;;20.68;100.00;98708.19;5058144;28;20021;-92
2022/07/18 02:15:12;;;;;;;8.65;3.30;;;;;;;20.57;99.79;98704.28;5080309;28;20040;-92
2022/07/18 02:17:38;;;;;;;9.70;3.25;;;;;;;20.66;97.36;98696.78;5082447;28;20020;-94
2022/07/18 02:20:07;;;;;;;8.45;3.25;;;;;;;20.62;96.39;98701.38;5062032;28;20044;-93
2022/07/18 02:22:33;;;;;;;8.95;3.35;;;;;;;20.68;95.17;98700.25;5064021;28;20070;-95
2022/07/18 02:24:58;;;;;;;8.65;3.65;;;;;;;20.58;94.04;98700.66;5057200;28;20116;-92
2022/07/18 02:27:24;;;;;;;7.75;3.40;;;;;;;20.63;93.04;98689.84;5062118;28;20601;-93
2022/07/18 02:29:50;;;;;;;10.80;3.50;;;;;;;20.50;93.23;98691.41;5058957;28;20627;-93
2022/07/18 02:32:16;;;;;;;9.45;3.38;;;;;;;20.47;92.60;98689.78;5058309;28;20058;-94
2022/07/18 02:34:42;;;;;;;7.97;3.35;;;;;;;20.37;93.27;98686.72;5061242;28;20494;-93
2022/07/18 02:37:08;;;;;;;9.63;3.47;;;;;;;20.48;91.60;98685.34;5074050;28;20403;-93
2022/07/18 02:39:33;;;;;;;9.27;3.50;;;;;;;20.42;90.81;98679.41;5055496;28;20036;-94
2022/07/18 02:42:04;;;;;;;8.88;3.50;;;;;;;20.37;88.71;98678.78;5075913;28;20582;-94
2022/07/18 02:44:30;;;;;;;9.07;3.53;;;;;;;20.33;88.23;98676.38;5056625;28;20029;-94
2022/07/18 02:46:55;;;;;;;8.27;3.53;;;;;;;20.41;87.03;98682.16;5063036;28;20051;-94
2022/07/18 02:49:27;;;;;;;8.73;3.67;;;;;;;20.36;86.57;98677.09;5056037;28;20064;-94
2022/07/18 02:52:05;;;;;;;8.35;3.50;;;;;;;20.40;85.01;98678.66;5079016;28;20031;-94
2022/07/18 02:54:35;;;;;;;10.05;3.65;;;;;;;20.36;84.12;98668.28;5066491;28;20507;-95
2022/07/18 02:57:04;;;;;;;10.55;3.60;;;;;;;20.32;82.28;98669.34;5067238;28;20106;-93
2022/07/18 02:59:30;;;;;;;10.55;3.58;;;;;;;20.28;81.51;98666.03;5058220;28;20473;-92
2022/07/18 03:01:56;;;;;;;9.18;3.63;;;;;;;20.26;81.30;98666.09;5066968;28;20027;-94
2022/07/18 03:04:22;;;;;;;9.05;3.65;;;;;;;20.29;80.37;98667.72;5060419;28;20068;-94
2022/07/18 03:06:49;;;;;;;8.43;3.28;;;;;;;20.24;78.31;98672.41;5080537;28;20024;-93
2022/07/18 03:09:15;;;;;;;8.85;3.65;;;;;;;20.35;75.55;98664.78;5066801;28;20035;-94
2022/07/18 03:11:46;;;;;;;9.45;3.47;;;;;;;20.34;74.71;98668.34;5060794;28;20500;-92
2022/07/18 03:14:12;;;;;;;8.25;3.33;;;;;;;20.34;74.59;98668.34;5068975;28;20033;-93
2022/07/18 03:16:38;;;;;;;8.52;3.33;;;;;;;20.29;75.01;98668.59;5069184;28;20037;-93
2022/07/18 03:19:03;;;;;;;8.30;3.40;;;;;;;20.35;72.17;98664.78;5065599;28;20085;-94
2022/07/18 03:21:29;;;;;;;8.00;3.25;;;;;;;20.26;70.83;98658.16;5057487;28;20044;-93
2022/07/18 03:23:55;;;;;;;8.18;3.20;;;;;;;20.66;68.92;98668.50;5065544;28;20027;-93
2022/07/18 03:26:24;;;;;;;8.82;3.10;;;;;;;20.98;64.86;98656.22;5069313;28;20029;-93
2022/07/18 03:28:50;;;;;;;9.52;3.25;;;;;;;20.35;68.51;98654.19;5075792;28;20036;-93
2022/07/18 03:31:15;;;;;;;8.20;3.33;;;;;;;20.71;66.03;98653.25;5060289;28;20671;-93
2022/07/18 03:33:41;;;;;;;8.25;3.15;;;;;;;20.20;69.59;98653.16;5060740;28;20043;-94
2022/07/18 03:36:07;;;;;;;8.95;3.60;;;;;;;20.19;70.74;98654.09;5078534;28;20981;-93
2022/07/18 03:38:32;;;;;;;8.77;3.15;;;;;;;20.10;71.87;98647.47;5062643;28;20105;-92
2022/07/18 03:40:59;;;;;;;11.95;3.92;;;;;;;19.99;71.01;98646.31;5062424;28;20024;-93
2022/07/18 03:43:24;;;;;;;9.20;2.95;;;;;;;19.96;70.49;98647.31;5071215;28;20057;-92
2022/07/18 03:45:50;;;;;;;10.65;3.38;;;;;;;19.93;71.23;98639.50;5082255;28;20559;-92
2022/07/18 03:48:15;;;;;;;7.57;2.80;;;;;;;19.91;70.25;98644.03;5085450;28;20025;-92
2022/07/18 03:50:41;;;;;;;9.88;3.20;;;;;;;19.86;69.93;98641.59;5065747;28;20025;-94
2022/07/18 03:53:09;;;;;;;7.68;3.17;;;;;;;19.86;70.29;98631.03;5065519;28;20023;-93
2022/07/18 03:55:35;;;;;;;9.52;3.30;;;;;;;19.85;70.47;98634.59;5061509;28;20044;-93
2022/07/18 03:58:00;;;;;;;8.18;2.92;;;;;;;19.88;70.70;98642.38;5067028;28;20025;-94
2022/07/18 04:00:26;;;;;;;9.07;3.22;;;;;;;19.85;74.20;98646.97;5081351;28;20039;-93
2022/07/18 04:02:54;;;;;;;8.73;3.60;;;;;;;19.65;78.22;98642.59;5082003;28;20029;-94
2022/07/18 04:05:19;;;;;;;10.27;3.75;;;;;;;19.56;76.85;98639.47;5067262;28;20029;-93
2022/07/18 04:07:45;;;;;;;7.90;3.17;;;;;;;19.59;79.82;98639.31;5070488;28;20033;-93
2022/07/18 04:10:11;;;;;;;9.55;3.60;;;;;;;19.45;80.63;98641.75;5065992;28;20056;-92
2022/07/18 04:12:57;;;;;;;9.23;3.78;;;;;;;19.30;82.88;98638.03;5084825;28;20025;-93
2022/07/18 04:15:25;;;;;;;8.45;3.35;;;;;;;19.42;81.76;98640.13;5082017;28;20037;-93
2022/07/18 04:17:52;;;;;;;8.43;3.30;;;;;;;19.78;80.11;98646.38;5083248;28;20057;-93
2022/07/18 04:20:20;;;;;;;9.13;3.58;;;;;;;19.78;77.71;98641.94;5079060;28;20025;-94
2022/07/18 04:22:59;;;;;;;7.53;3.30;;;;;;;19.43;80.04;98643.63;5062614;28;20056;-93
2022/07/18 04:25:26;;;;;;;8.25;3.38;;;;;;;19.26;83.55;98647.06;5082233;28;20500;-94
2022/07/18 04:27:53;;;;;;;8.95;3.80;;;;;;;19.31;86.09;98638.91;5065692;28;20029;-94
2022/07/18 04:30:21;;;;;;;10.05;3.42;;;;;;;19.01;86.79;98632.34;5063926;28;20032;-94
2022/07/18 04:32:47;;;;;;;9.18;3.20;;;;;;;19.12;84.00;98631.81;5062654;28;20035;-94
2022/07/18 04:35:13;;;;;;;8.30;3.40;;;;;;;19.18;81.82;98625.41;5064390;28;20032;-94
2022/07/18 04:37:40;;;;;;;8.45;3.67;;;;;;;19.23;78.77;98631.34;5078278;28;20025;-95
2022/07/18 04:40:07;;;;;;;9.95;3.28;;;;;;;19.44;77.95;98624.19;5082653;28;20457;-94
2022/07/18 04:42:33;;;;;;;9.63;3.72;;;;;;;19.50;78.55;98618.63;5077491;28;20072;-93
2022/07/18 04:44:59;;;;;;;9.43;3.00;;;;;;;19.36;82.34;98616.63;5064253;28;20051;-94
2022/07/18 04:47:26;;;;;;;8.55;2.92;;;;;;;20.41;73.75;98608.81;5062036;28;20421;-94
2022/07/18 04:49:51;;;;;;;7.63;3.33;;;;;;;19.57;79.64;98606.81;5071162;28;20036;-93
2022/07/18 04:52:17;;;;;;;8.85;3.33;;;;;;;19.23;77.79;98608.41;5070121;28;20024;-94
2022/07/18 04:54:42;;;;;;;8.93;3.53;;;;;;;19.56;76.60;98606.88;5066296;28;21306;-94
2022/07/18 04:57:10;;;;;;;7.90;3.17;;;;;;;20.56;69.74;98607.19;5070282;28;20028;-92
2022/07/18 04:59:39;;;;;;;8.05;3.15;;;;;;;20.31;60.21;98604.94;5062710;28;20032;-94
2022/07/18 05:02:04;;;;;;;10.30;3.25;;;;;;;19.55;74.36;98605.16;5079705;28;20043;-93
2022/07/18 05:04:30;;;;;;;7.85;3.22;;;;;;;19.17;82.34;98600.75;5067706;28;20021;-95
2022/07/18 05:06:56;;;;;;;7.30;3.05;;;;;;;19.13;79.12;98604.47;5066974;28;20216;-94
2022/07/18 05:09:21;;;;;;;8.35;3.10;;;;;;;19.85;75.41;98609.94;5082083;28;20036;-95
2022/07/18 05:11:50;;;;;;;8.38;3.28;;;;;;;20.76;51.49;98607.94;5086171;28;20501;-93
2022/07/18 05:14:15;;;;;;;8.38;3.10;;;;;;;20.90;57.27;98608.06;5065249;28;20020;-93
2022/07/18 05:16:41;;;;;;;7.85;3.10;;;;;;;21.19;57.20;98607.44;5081520;28;20035;-93
2022/07/18 05:19:07;;;;;;;8.27;3.10;;;;;;;20.83;50.35;98613.78;5067187;28;20016;-92
2022/07/18 05:21:34;;;;;;;8.27;2.95;;;;;;;21.45;49.69;98608.63;5077986;28;20028;-94
2022/07/18 05:24:00;;;;;;;7.78;3.10;;;;;;;21.20;53.13;98604.69;5067873;28;20485;-94
2022/07/18 05:26:26;;;;;;;8.95;3.13;;;;;;;20.55;59.76;98599.31;5068375;28;20530;-93
2022/07/18 05:28:51;;;;;;;7.97;2.97;;;;;;;21.06;55.76;98602.78;5078629;28;20041;-93
2022/07/18 05:31:17;;;;;;;7.60;2.92;;;;;;;21.65;50.01;98607.53;5068671;28;20103;-94
2022/07/18 05:33:43;;;;;;;10.20;3.45;;;;;;;21.56;46.26;98608.03;5066753;28;20082;-95
2022/07/18 05:36:09;;;;;;;10.18;3.00;;;;;;;21.74;48.72;98608.78;5066985;28;20051;-94
2022/07/18 05:38:34;;;;;;;7.90;2.78;;;;;;;21.67;47.11;98610.09;5083691;28;20032;-94
2022/07/18 05:41:00;;;;;;;9.65;3.17;;;;;;;21.85;46.26;98611.72;5065534;28;20024;-93
2022/07/18 05:43:25;;;;;;;10.20;2.78;;;;;;;22.26;46.74;98605.75;5063398;28;20036;-93
2022/07/18 05:45:51;;;;;;;8.10;2.70;;;;;;;22.24;44.14;98606.78;5064738;28;20461;-94
2022/07/18 05:48:16;;;;;;;6.93;2.72;;;;;;;22.23;42.53;98594.47;5060798;28;20031;-93
2022/07/18 05:50:42;;;;;;;9.43;3.10;;;;;;;22.20;43.54;98605.25;5083959;28;20477;-94
2022/07/18 05:53:07;;;;;;;10.52;3.20;;;;;;;21.82;43.44;98599.47;5065822;28;20106;-94
2022/07/18 05:55:33;;;;;;;10.82;2.63;;;;;;;21.70;44.63;98601.94;5075955;28;20447;-94
2022/07/18 05:57:58;;;;;;;8.23;2.72;;;;;;;22.17;43.05;98604.50;5083237;28;20086;-93
2022/07/18 06:00:24;;;;;;;7.63;3.13;;;;;;;21.00;45.55;98600.47;5060553;28;20094;-93
2022/07/18 06:02:50;;;;;;;8.82;3.30;;;;;;;21.07;46.72;98604.50;5064239;28;20867;-94
2022/07/18 06:05:16;;;;;;;8.38;3.00;;;;;;;21.07;46.35;98604.50;5078148;28;20473;-94
2022/07/18 06:07:47;;;;;;;9.73;3.10;;;;;;;21.13;47.16;98609.47;5062408;28;20035;-95
2022/07/18 06:10:14;;;;;;;7.68;2.95;;;;;;;21.38;47.40;98604.59;5066316;28;20028;-93
2022/07/18 06:12:39;;;;;;;9.30;3.15;;;;;;;21.31;46.37;98599.63;5080011;28;20092;-94
2022/07/18 06:15:08;;;;;;;8.38;3.00;;;;;;;21.48;44.72;98611.09;5064464;28;20037;-92
2022/07/18 06:17:34;;;;;;;8.45;2.95;;;;;;;21.62;43.89;98607.72;5064123;28;20809;-93
2022/07/18 06:19:59;;;;;;;7.68;3.00;;;;;;;21.97;44.99;98615.44;5079980;28;20031;-93
2022/07/18 06:22:25;;;;;;;8.10;3.40;;;;;;;21.95;46.04;98614.69;5061641;28;20033;-93
2022/07/18 06:24:53;;;;;;;7.65;2.80;;;;;;;21.90;45.12;98620.25;5056641;28;20024;-92
2022/07/18 06:27:18;;;;;;;9.60;3.05;;;;;;;22.11;46.13;98604.00;5062402;28;20028;-93
2022/07/18 06:29:44;;;;;;;8.60;2.85;;;;;;;22.28;48.53;98601.22;5059758;28;20024;-93
2022/07/18 06:32:11;;;;;;;11.18;3.20;;;;;;;22.24;44.57;98602.34;5075065;28;20064;-92
2022/07/18 06:34:37;;;;;;;7.65;2.60;;;;;;;22.35;44.45;98616.81;5076859;28;20131;-92
2022/07/18 06:37:06;;;;;;;11.50;3.25;;;;;;;23.60;41.63;98620.59;5063273;28;20472;-93
2022/07/18 06:39:32;;;;;;;13.02;3.20;;;;;;;22.65;44.23;98614.94;5075125;28;20044;-94
2022/07/18 06:41:57;;;;;;;9.27;3.10;;;;;;;22.57;46.40;98613.72;5059803;28;20021;-93
2022/07/18 06:44:57;;;;;;;8.45;3.05;;;;;;;22.65;47.14;98617.59;5060929;28;20063;-95
2022/07/18 06:47:22;;;;;;;10.07;2.85;;;;;;;22.78;47.14;98612.41;5061211;28;20081;-94
2022/07/18 06:49:48;;;;;;;8.13;2.90;;;;;;;22.71;45.89;98616.38;5059136;28;20059;-93
2022/07/18 06:52:15;;;;;;;9.70;2.75;;;;;;;22.69;47.91;98610.31;5066327;28;20468;-93
2022/07/18 06:54:41;;;;;;;13.88;3.35;;;;;;;22.70;48.29;98613.81;5080419;28;20067;-95
2022/07/18 06:57:07;;;;;;;9.80;3.30;;;;;;;22.61;47.96;98605.44;5081526;28;20110;-94
2022/07/18 06:59:33;;;;;;;8.52;2.78;;;;;;;22.84;52.44;98612.03;5082461;28;20029;-94
2022/07/18 07:01:59;;;;;;;9.15;2.75;;;;;;;22.80;51.19;98610.50;5066874;28;20020;-93
2022/07/18 07:04:24;;;;;;;8.80;3.17;;;;;;;22.96;51.44;98614.88;5061925;28;20106;-93
2022/07/18 07:06:50;;;;;;;9.30;3.00;;;;;;;23.29;50.49;98611.91;5064871;28;20115;-90
2022/07/18 07:09:15;;;;;;;9.68;3.33;;;;;;;23.32;47.42;98618.84;5068788;28;20135;-90
2022/07/18 07:11:41;;;;;;;8.02;2.97;;;;;;;23.41;47.04;98618.28;5069363;28;20089;-89
2022/07/18 07:14:06;;;;;;;8.15;3.00;;;;;;;23.37;43.87;98619.41;5054766;28;20031;-87
2022/07/18 07:16:32;;;;;;;8.70;3.05;;;;;;;23.39;43.96;98624.66;5058749;28;20024;-93
2022/07/18 07:18:58;;;;;;;11.25;3.00;;;;;;;23.26;41.93;98621.91;5064175;28;20029;-95
2022/07/18 07:21:23;;;;;;;7.50;2.85;;;;;;;23.59;44.43;98612.69;5060119;28;20028;-94
2022/07/18 07:23:49;;;;;;;8.95;2.60;;;;;;;23.75;43.39;98613.41;5063739;28;20112;-94
2022/07/18 07:26:14;;;;;;;10.57;2.63;;;;;;;23.80;45.15;98611.31;5078777;28;20392;-94
2022/07/18 07:28:42;;;;;;;7.85;2.75;;;;;;;24.00;43.98;98619.81;5073122;28;20024;-93
2022/07/18 07:31:08;;;;;;;9.38;3.10;;;;;;;23.83;43.18;98618.25;5070336;28;20025;-95
2022/07/18 07:33:33;;;;;;;8.43;2.90;;;;;;;23.48;40.42;98630.22;5070560;28;20028;-95
2022/07/18 07:36:03;;;;;;;8.10;3.03;;;;;;;23.77;41.74;98619.50;5082050;28;20036;-94
2022/07/18 07:38:29;;;;;;;9.13;3.05;;;;;;;23.69;39.42;98627.97;5064316;28;20025;-94
2022/07/18 07:40:55;;;;;;;9.05;2.53;;;;;;;23.93;39.68;98626.50;5065382;28;20077;-94
2022/07/18 07:43:21;;;;;;;12.65;3.47;;;;;;;23.98;40.17;98619.03;5066559;28;20422;-93
2022/07/18 07:45:48;;;;;;;10.70;3.25;;;;;;;24.09;40.73;98626.31;5081530;28;20040;-93
2022/07/18 07:48:22;;;;;;;10.82;3.17;;;;;;;24.14;39.55;98625.06;5067740;28;20099;-94
2022/07/18 07:50:55;;;;;;;13.07;2.83;;;;;;;24.29;37.16;98638.34;5076083;28;20021;-94
2022/07/18 07:53:22;;;;;;;9.90;3.33;;;;;;;24.33;37.38;98631.84;5062510;28;20179;-93
2022/07/18 07:55:47;;;;;;;8.65;2.80;;;;;;;24.44;35.64;98634.63;5061475;28;20113;-94
2022/07/18 07:58:13;;;;;;;8.63;2.92;;;;;;;24.39;34.45;98644.72;5079752;28;20771;-93
2022/07/18 08:00:44;;;;;;;12.18;2.95;;;;;;;24.46;34.26;98630.03;5066617;28;20028;-94
2022/07/18 08:03:15;;;;;;;7.80;2.80;;;;;;;24.65;36.28;98623.47;5077912;28;20020;-94
2022/07/18 08:05:54;;;;;;;7.68;2.67;;;;;;;24.71;34.92;98629.22;5065059;28;20477;-94
2022/07/18 08:08:20;;;;;;;8.10;2.72;;;;;;;24.99;35.45;98631.78;5066290;28;20040;-94
2022/07/18 08:10:47;;;;;;;9.65;2.80;;;;;;;24.75;32.48;98639.69;5058536;28;20036;-94
2022/07/18 08:13:13;;;;;;;8.63;2.63;;;;;;;24.81;33.28;98644.59;5083257;28;20170;-95
2022/07/18 08:15:39;;;;;;;16.92;3.03;;;;;;;24.83;33.22;98638.19;5064849;28;20098;-93
2022/07/18 08:18:05;;;;;;;10.40;3.03;;;;;;;24.97;34.55;98647.88;5061698;28;20732;-93
2022/07/18 08:20:33;;;;;;;10.55;2.55;;;;;;;24.98;34.25;98627.38;5072642;28;20428;-95
2022/07/18 08:23:03;;;;;;;10.70;2.90;;;;;;;25.07;34.29;98637.41;5064767;28;20032;-95
2022/07/18 08:25:31;;;;;;;10.68;3.22;;;;;;;25.20;34.53;98621.38;5063320;28;20040;-93
2022/07/18 08:28:03;;;;;;;10.43;2.88;;;;;;;25.30;34.07;98637.59;5076640;28;20029;-93
2022/07/18 08:30:30;;;;;;;10.98;3.17;;;;;;;25.28;34.04;98626.19;5077369;28;20480;-92
2022/07/18 08:33:00;;;;;;;8.77;2.65;;;;;;;25.44;33.06;98633.94;5006744;28;20136;-94
2022/07/18 08:35:27;;;;;;;10.10;3.10;;;;;;;25.43;33.25;98629.56;4998595;28;20038;-93
2022/07/18 08:37:52;;;;;;;8.98;2.60;;;;;;;25.43;34.28;98622.44;5004572;28;20026;-94
2022/07/18 08:40:19;;;;;;;7.88;2.90;;;;;;;25.56;37.29;98615.22;5006236;28;20040;-95
2022/07/18 08:42:45;;;;;;;9.70;2.60;;;;;;;25.46;35.17;98622.19;5002176;28;20036;-94
2022/07/18 08:45:11;;;;;;;7.45;2.40;;;;;;;25.42;34.03;98638.56;5009228;28;20026;-94
2022/07/18 08:47:38;;;;;;;8.23;2.90;;;;;;;25.50;34.96;98621.00;5021575;28;20089;-94
2022/07/18 08:50:05;;;;;;;7.72;2.80;;;;;;;25.29;32.89;98633.19;5009068;28;20438;-94
2022/07/18 08:52:35;;;;;;;8.13;2.67;;;;;;;25.62;33.40;98626.41;5013508;28;20116;-93
2022/07/18 08:55:03;;;;;;;8.95;2.97;;;;;;;25.63;32.56;98620.13;5011232;28;20038;-95
2022/07/18 08:57:29;;;;;;;7.80;2.72;;;;;;;25.57;33.01;98624.09;5004321;28;20748;-96
2022/07/18 08:59:56;;;;;;;12.65;3.15;;;;;;;25.70;35.23;98616.03;4955550;28;20041;-96
2022/07/18 09:02:27;;;;;;;10.10;2.90;;;;;;;25.78;34.07;98621.66;5003195;28;20076;-95
2022/07/18 09:04:54;;;;;;;8.10;2.60;;;;;;;25.86;35.75;98618.41;4998486;28;20774;-95
2022/07/18 09:07:32;;;;;;;9.45;3.03;;;;;;;26.15;35.23;98610.94;5006327;28;20128;-96
2022/07/18 09:10:00;;;;;;;8.00;2.72;;;;;;;26.19;33.59;98636.47;5007441;28;20425;-95
2022/07/18 09:12:41;;;;;;;12.98;3.25;;;;;;;26.31;32.75;98634.66;5011605;28;20117;-95
2022/07/18 09:15:13;;;;;;;11.00;2.75;;;;;;;26.46;32.50;98632.63;5008237;28;20129;-95
2022/07/18 09:17:41;;;;;;;;;;;;;;;26.53;33.52;98630.34;5010305;28;20045;-95
2022/07/18 09:20:15;;;;;;;8.60;2.83;;;;;;;26.69;34.84;98617.50;5012209;28;19925;-93
2022/07/18 09:22:50;;;;;;;11.82;3.00;;;;;;;26.58;32.43;98625.47;4944999;28;20038;-96
2022/07/18 09:25:24;;;;;;;11.02;3.17;;;;;;;26.53;32.05;98625.84;5017637;28;20030;-96
2022/07/18 09:27:54;;;;;;;9.13;2.78;;;;;;;26.52;32.81;98618.78;5005676;28;20659;-94
2022/07/18 09:30:38;;;;;;;7.43;2.88;;;;;;;26.56;29.88;98633.63;5013022;28;20024;-96
2022/07/18 09:33:15;;;;;;;8.35;2.72;;;;;;;26.45;30.19;98630.09;5013573;28;20161;-96
2022/07/18 09:35:46;;;;;;;8.40;2.55;;;;;;;26.50;28.68;98625.22;5013466;28;20030;-95
2022/07/18 09:38:28;;;;;;;10.38;2.70;;;;;;;26.47;29.95;98629.00;5007963;28;20052;-94
2022/07/18 09:41:00;;;;;;;9.05;3.03;;;;;;;26.92;28.98;98614.84;5018191;28;20011;-96
2022/07/18 09:43:27;;;;;;;11.30;3.10;;;;;;;26.51;27.89;98635.78;5015407;28;20048;-96
2022/07/18 09:45:55;;;;;;;9.27;3.15;;;;;;;26.53;28.75;98627.69;5016950;28;20412;-96
2022/07/18 09:48:39;;;;;;;9.05;3.00;;;;;;;27.07;30.04;98620.78;5006335;28;20713;-94
2022/07/18 09:51:06;;;;;;;7.72;2.60;;;;;;;27.35;30.25;98618.59;5013364;28;20028;-94
2022/07/18 09:53:32;;;;;;;11.05;2.90;;;;;;;27.41;29.88;98627.00;5010513;28;20393;-96
2022/07/18 09:56:02;;;;;;;10.60;3.20;;;;;;;27.62;30.95;98607.50;5008743;28;20117;-93
2022/07/18 09:58:41;;;;;;;10.40;2.97;;;;;;;27.66;30.56;98618.81;5010962;28;20041;-96
2022/07/18 10:01:10;;;;;;;9.27;2.97;;;;;;;27.89;30.98;98607.06;5011344;28;20022;-96
2022/07/18 10:03:39;;;;;;;8.30;2.90;;;;;;;27.80;29.92;98613.16;5025181;28;20029;-96
2022/07/18 10:06:05;;;;;;;7.97;2.78;;;;;;;27.80;27.36;98620.38;5027298;28;20037;-96
2022/07/18 10:08:32;;;;;;;11.35;3.40;;;;;;;27.98;27.01;98626.03;5016896;28;20052;-95
2022/07/18 10:11:01;;;;;;;8.55;2.63;;;;;;;27.66;26.45;98622.34;5004149;28;20029;-94
2022/07/18 10:13:29;;;;;;;10.95;2.60;;;;;;;28.48;27.98;98623.59;5024199;28;20044;-95
2022/07/18 10:15:55;;;;;;;7.57;2.78;;;;;;;28.33;26.02;98628.44;5016212;28;20112;-95
2022/07/18 10:18:23;;;;;;;9.20;3.15;;;;;;;28.98;24.27;98646.22;5011607;28;20069;-93
2022/07/18 10:20:54;;;;;;;10.38;2.95;;;;;;;29.44;24.53;98642.19;5010169;28;20061;-95
2022/07/18 10:23:39;;;;;;;7.28;2.60;;;;;;;29.82;23.26;98653.16;5010807;28;20022;-94
2022/07/18 10:26:22;;;;;;;7.63;2.80;;;;;;;29.86;23.15;98646.56;5009523;28;20037;-95
2022/07/18 10:29:00;;;;;;;7.97;2.53;;;;;;;30.45;24.11;98650.13;5009251;28;20115;-94
2022/07/18 10:31:29;;;;;;;7.47;2.80;;;;;;;30.68;22.67;98639.03;5002771;28;20037;-95
2022/07/18 10:34:10;;;;;;;8.20;2.88;;;;;;;30.95;23.33;98649.88;5005993;28;20034;-95
2022/07/18 10:37:06;;;;;;;7.28;2.95;;;;;;;31.61;24.07;98634.59;5006838;28;20030;-96
2022/07/18 10:39:42;;;;;;;8.52;3.03;;;;;;;31.97;23.38;98642.72;5014019;28;20038;-95
2022/07/18 10:42:13;;;;;;;7.35;2.90;;;;;;;31.64;22.69;98657.69;5010507;28;20038;-96
2022/07/18 10:44:40;;;;;;;9.63;2.77;;;;;;;31.76;22.28;98645.69;4998355;28;20505;-95
2022/07/18 10:47:24;;;;;;;7.72;2.55;;;;;;;31.79;21.65;98653.47;5005095;28;20307;-95
2022/07/18 10:49:57;;;;;;;6.78;2.45;;;;;;;32.48;21.83;98655.66;5003806;28;20030;-96
2022/07/18 10:52:23;;;;;;;6.55;2.50;;;;;;;32.60;20.19;98670.59;5012711;28;20026;-96
2022/07/18 10:55:01;;;;;;;7.15;2.25;;;;;;;32.05;19.31;98678.84;5011356;28;20046;-96
2022/07/18 10:57:28;;;;;;;8.27;2.40;;;;;;;32.55;20.00;98661.28;5000385;28;20777;-96
2022/07/18 11:00:13;;;;;;;7.65;2.30;;;;;;;32.40;19.21;98672.66;5011167;28;20089;-95
2022/07/18 11:03:13;;;;;;;6.93;2.45;;;;;;;32.72;19.10;98663.09;5006589;28;20390;-96
2022/07/18 11:05:50;;;;;;;8.57;2.47;;;;;;;32.64;18.04;98671.13;5019361;28;20033;-96
2022/07/18 11:08:18;;;;;;;6.40;2.30;;;;;;;31.79;17.04;98687.66;5009430;28;20026;-95
2022/07/18 11:10:46;;;;;;;10.50;2.28;;;;;;;32.59;19.21;98678.84;4960159;28;20104;-96
2022/07/18 11:13:31;;;;;;;7.07;2.20;;;;;;;32.44;17.21;98692.06;5023302;28;20032;-96
2022/07/18 11:16:15;;;;;;;7.80;2.30;;;;;;;32.09;18.13;98682.94;5019491;28;20203;-95
2022/07/18 11:18:40;;;;;;;7.95;2.15;;;;;;;32.76;19.85;98671.75;5009671;28;20030;-95
2022/07/18 11:21:21;;;;;;;7.07;2.10;;;;;;;33.07;19.89;98657.75;5005391;28;20037;-96
2022/07/18 11:24:06;;;;;;;7.65;2.15;;;;;;;32.57;18.05;98679.00;5008976;28;20030;-96
2022/07/18 11:26:35;;;;;;;9.63;2.20;;;;;;;32.88;18.08;98664.25;5006008;28;20064;-96
2022/07/18 11:29:03;;;;;;;10.50;2.45;;;;;;;32.91;17.01;98689.06;5015496;28;20093;-96
2022/07/18 11:31:30;;;;;;;7.43;2.00;;;;;;;32.79;18.13;98671.41;5027453;28;20041;-96
2022/07/18 11:33:59;;;;;;;6.72;2.00;;;;;;;32.96;17.47;98664.28;5010302;28;20037;-96
2022/07/18 11:36:32;;;;;;;7.00;2.08;;;;;;;33.87;19.56;98654.72;5024975;28;20034;-96
2022/07/18 11:39:07;;;;;;;7.88;1.95;;;;;;;33.57;18.06;98680.47;5030684;28;20010;-96
2022/07/18 11:41:37;;;;;;;6.57;2.03;;;;;;;32.97;17.88;98674.06;5010737;28;20027;-95